createdAt,value
2022-08-10T00:01:16.619Z,19.90
2022-08-10T00:05:18.599Z,19.70
2022-08-10T00:09:21.171Z,20.10
2022-08-10T00:13:23.998Z,20.50
2022-08-10T00:17:25.676Z,20.30
2022-08-10T00:21:27.324Z,20.10
2022-08-10T00:25:28.707Z,20.30
2022-08-10T00:29:30.102Z,20.30
2022-08-10T00:33:31.087Z,20.10
2022-08-10T00:37:32.176Z,20.30
2022-08-10T00:41:33.176Z,19.80
2022-08-10T00:45:35.590Z,19.90
2022-08-10T00:49:37.181Z,20.10
2022-08-10T00:53:38.396Z,20.00
2022-08-10T00:57:40.283Z,19.70
2022-08-10T01:02:08.946Z,19.70
2022-08-10T01:10:18.661Z,19.30
2022-08-10T01:14:49.162Z,19.00
2022-08-10T01:19:06.125Z,19.60
2022-08-10T01:23:35.946Z,19.50
2022-08-10T01:28:09.561Z,19.20
2022-08-10T01:32:13.560Z,19.10
2022-08-10T01:36:18.359Z,19.40
2022-08-10T01:40:24.395Z,19.40
2022-08-10T01:44:32.010Z,19.40
2022-08-10T01:48:45.614Z,19.20
2022-08-10T01:52:49.913Z,18.60
2022-08-10T01:56:54.700Z,19.10
2022-08-10T02:00:58.132Z,19.10
2022-08-10T02:05:02.911Z,19.10
2022-08-10T02:09:07.283Z,18.90
2022-08-10T02:13:10.057Z,18.80
2022-08-10T02:17:59.431Z,18.50
2022-08-10T02:21:18.355Z,18.70
2022-08-10T02:25:41.910Z,18.70
2022-08-10T02:29:25.403Z,18.80
2022-08-10T02:33:27.201Z,18.40
2022-08-10T02:37:30.079Z,18.70
2022-08-10T02:45:01.647Z,18.70
2022-08-10T02:45:50.668Z,18.60
2022-08-10T02:50:01.405Z,18.10
2022-08-10T02:54:08.699Z,18.40
2022-08-10T02:58:19.486Z,18.50
2022-08-10T03:02:30.225Z,18.10
2022-08-10T03:06:41.351Z,18.30
2022-08-10T03:10:44.572Z,17.90
2022-08-10T03:14:46.924Z,18.50
2022-08-10T03:18:49.207Z,18.50
2022-08-10T03:22:51.787Z,18.20
2022-08-10T03:26:54.398Z,18.30
2022-08-10T03:30:57.622Z,17.90
2022-08-10T03:34:59.796Z,17.80
2022-08-10T03:39:00.880Z,18.00
2022-08-10T03:43:03.078Z,18.20
2022-08-10T03:47:16.239Z,18.40
2022-08-10T03:51:10.754Z,18.20
2022-08-10T03:55:12.278Z,18.00
2022-08-10T03:59:16.744Z,17.70
2022-08-10T04:03:18.010Z,18.20
2022-08-10T04:07:20.908Z,17.90
2022-08-10T04:11:21.829Z,18.30
2022-08-10T04:15:24.130Z,18.10
2022-08-10T04:19:27.622Z,18.20
2022-08-10T04:23:32.549Z,18.10
2022-08-10T04:27:34.302Z,18.10
2022-08-10T04:31:37.183Z,18.10
2022-08-10T04:35:41.110Z,18.30
2022-08-10T04:39:43.127Z,18.10
2022-08-10T04:43:45.416Z,18.10
2022-08-10T04:47:57.275Z,18.20
2022-08-10T04:51:49.296Z,18.30
2022-08-10T04:55:50.283Z,18.40
2022-08-10T04:59:51.300Z,18.40
2022-08-10T05:04:36.984Z,18.50
2022-08-10T05:07:56.927Z,18.70
2022-08-10T05:11:58.103Z,18.90
2022-08-10T05:15:59.089Z,19.10
2022-08-10T05:20:02.949Z,19.50
2022-08-10T05:24:03.972Z,19.80
2022-08-10T05:28:06.736Z,19.90
2022-08-10T05:32:08.382Z,20.10
2022-08-10T05:36:09.689Z,20.50
2022-08-10T05:40:11.160Z,20.70
2022-08-10T05:44:12.959Z,20.80
2022-08-10T05:48:58.001Z,21.20
2022-08-10T05:52:17.968Z,21.40
2022-08-10T05:56:19.217Z,21.80
2022-08-10T06:00:39.747Z,22.10
2022-08-10T06:04:29.225Z,22.50
2022-08-10T06:08:35.485Z,22.80
2022-08-10T06:12:54.006Z,23.30
2022-08-10T06:16:44.797Z,23.90
2022-08-10T06:20:46.547Z,24.30
2022-08-10T06:25:18.381Z,24.90
2022-08-10T06:29:03.041Z,25.50
2022-08-10T06:33:03.066Z,26.20
2022-08-10T06:37:06.991Z,26.80
2022-08-10T06:41:13.167Z,27.20
2022-08-10T06:45:30.411Z,26.60
2022-08-10T06:49:32.504Z,26.80
2022-08-10T06:53:53.894Z,26.10
2022-08-10T06:57:40.636Z,26.50
2022-08-10T07:01:51.193Z,25.80
2022-08-10T07:05:51.477Z,26.00
2022-08-10T07:09:55.238Z,27.00
2022-08-10T07:14:16.432Z,28.10
2022-08-10T07:18:03.954Z,28.40
2022-08-10T07:22:06.338Z,27.10
2022-08-10T07:26:09.841Z,27.70
2022-08-10T07:30:12.074Z,28.90
2022-08-10T07:34:28.650Z,27.90
2022-08-10T07:38:25.766Z,28.00
2022-08-10T07:42:30.288Z,28.50
2022-08-10T07:46:34.725Z,28.90
2022-08-10T07:50:40.872Z,27.80
2022-08-10T07:54:44.973Z,28.30
2022-08-10T07:58:52.611Z,29.20
2022-08-10T08:02:55.416Z,28.60
2022-08-10T08:06:59.114Z,27.90
2022-08-10T08:11:02.268Z,28.00
2022-08-10T08:15:14.755Z,30.10
2022-08-10T08:19:26.623Z,28.90
2022-08-10T08:24:10.567Z,28.20
2022-08-10T08:27:19.127Z,29.00
2022-08-10T08:31:22.466Z,29.60
2022-08-10T08:35:25.601Z,29.30
2022-08-10T08:39:27.080Z,28.70
2022-08-10T08:43:41.093Z,29.30
2022-08-10T08:48:06.626Z,29.80
2022-08-10T08:52:20.654Z,31.00
2022-08-10T08:56:28.368Z,30.00
2022-08-10T09:00:36.911Z,28.90
2022-08-10T09:05:06.001Z,28.90
2022-08-10T09:09:22.792Z,28.70
2022-08-10T09:13:33.577Z,28.60
2022-08-10T09:17:44.311Z,30.10
2022-08-10T09:21:58.775Z,28.70
2022-08-10T09:25:55.256Z,28.30
2022-08-10T09:29:59.240Z,30.20
2022-08-10T09:36:25.142Z,30.20
2022-08-10T09:38:54.287Z,29.40
2022-08-10T09:43:25.400Z,30.10
2022-08-10T09:48:00.013Z,30.90
2022-08-10T09:52:02.278Z,29.40
2022-08-10T09:56:28.267Z,28.20
2022-08-10T10:00:33.162Z,28.40
2022-08-10T10:04:58.065Z,29.70
2022-08-10T10:09:17.828Z,28.50
2022-08-10T10:14:02.489Z,29.40
2022-08-10T10:18:08.889Z,30.20
2022-08-10T10:22:30.186Z,29.00
2022-08-10T10:27:00.313Z,28.90
2022-08-10T10:31:16.441Z,29.60
2022-08-10T10:35:43.172Z,30.70
2022-08-10T10:39:48.189Z,29.70
2022-08-10T10:44:27.697Z,29.70
2022-08-10T10:49:09.347Z,29.60
2022-08-10T10:53:25.739Z,29.60
2022-08-10T10:57:59.266Z,29.70
2022-08-10T11:01:46.789Z,31.10
2022-08-10T11:05:51.690Z,30.90
2022-08-10T11:10:04.093Z,31.10
2022-08-10T11:14:26.525Z,30.00
2022-08-10T11:18:15.819Z,30.20
2022-08-10T11:22:39.336Z,30.50
2022-08-10T11:26:52.929Z,30.40
2022-08-10T11:31:13.391Z,30.30
2022-08-10T11:35:46.323Z,29.40
2022-08-10T11:39:54.111Z,29.90
2022-08-10T11:44:02.088Z,29.80
2022-08-10T11:48:53.209Z,30.80
2022-08-10T11:52:46.686Z,32.30
2022-08-10T11:56:51.373Z,30.10
2022-08-10T12:00:57.054Z,30.90
2022-08-10T12:05:18.148Z,30.40
2022-08-10T12:10:09.686Z,30.90
2022-08-10T12:13:31.751Z,31.50
2022-08-10T12:17:39.448Z,32.50
2022-08-10T12:21:44.297Z,31.00
2022-08-10T12:25:58.835Z,34.60
2022-08-10T12:30:06.560Z,35.10
2022-08-10T12:34:20.813Z,36.30
2022-08-10T12:38:41.172Z,34.10
2022-08-10T12:43:02.647Z,34.20
2022-08-10T12:47:14.704Z,33.90
2022-08-10T12:51:28.533Z,33.20
2022-08-10T12:55:31.259Z,33.70
2022-08-10T12:59:43.463Z,33.80
2022-08-10T13:04:21.570Z,35.20
2022-08-10T13:08:07.295Z,38.10
2022-08-10T13:12:36.393Z,36.80
2022-08-10T13:16:04.917Z,34.50
2022-08-10T13:20:14.699Z,36.00
2022-08-10T13:24:19.641Z,33.20
2022-08-10T13:28:35.513Z,34.00
2022-08-10T13:32:31.198Z,35.00
2022-08-10T13:36:35.976Z,33.20
2022-08-10T13:40:38.639Z,33.00
2022-08-10T13:44:45.698Z,34.40
2022-08-10T13:48:47.064Z,37.20
2022-08-10T13:52:54.438Z,38.20
2022-08-10T13:56:57.969Z,35.70
2022-08-10T14:01:01.238Z,35.20
2022-08-10T14:05:05.442Z,33.10
2022-08-10T14:09:09.806Z,35.60
2022-08-10T14:13:14.981Z,35.60
2022-08-10T14:17:20.136Z,36.40
2022-08-10T14:21:22.124Z,34.80
2022-08-10T14:25:24.043Z,35.00
2022-08-10T14:29:26.826Z,34.70
2022-08-10T14:33:31.037Z,33.30
2022-08-10T14:37:37.852Z,35.30
2022-08-10T14:42:02.547Z,35.20
2022-08-10T14:45:47.080Z,33.90
2022-08-10T14:49:57.057Z,33.80
2022-08-10T14:54:01.344Z,33.00
2022-08-10T14:58:19.292Z,34.50
2022-08-10T15:02:38.905Z,35.50
2022-08-10T15:06:18.149Z,33.80
2022-08-10T15:10:22.023Z,35.00
2022-08-10T15:14:42.996Z,34.10
2022-08-10T15:18:30.276Z,34.60
2022-08-10T15:22:39.472Z,33.40
2022-08-10T15:26:36.959Z,33.20
2022-08-10T15:30:42.452Z,32.70
2022-08-10T15:35:04.709Z,31.80
2022-08-10T15:40:26.080Z,32.00
2022-08-10T15:43:36.884Z,31.80
2022-08-10T15:47:45.830Z,33.10
2022-08-10T15:52:04.551Z,32.60
2022-08-10T15:56:12.737Z,31.90
2022-08-10T16:00:17.745Z,32.10
2022-08-10T16:04:31.849Z,32.50
2022-08-10T16:08:29.322Z,32.50
2022-08-10T16:12:34.065Z,31.80
2022-08-10T16:16:37.045Z,32.10
2022-08-10T16:20:55.270Z,31.20
2022-08-10T16:24:55.915Z,31.00
2022-08-10T16:29:12.715Z,31.80
2022-08-10T16:33:17.537Z,31.20
2022-08-10T16:37:21.574Z,31.40
2022-08-10T16:42:03.813Z,32.50
2022-08-10T16:45:33.143Z,31.90
2022-08-10T16:49:37.447Z,31.90
2022-08-10T16:53:42.605Z,31.10
2022-08-10T16:57:47.211Z,31.00
2022-08-10T17:01:51.679Z,30.80
2022-08-10T17:06:11.347Z,30.60
2022-08-10T17:10:01.689Z,30.60
2022-08-10T17:14:06.621Z,30.70
2022-08-10T17:18:12.753Z,30.00
2022-08-10T17:22:17.852Z,30.10
2022-08-10T17:26:35.418Z,30.80
2022-08-10T17:30:35.071Z,29.70
2022-08-10T17:34:34.877Z,29.60
2022-08-10T17:38:37.549Z,29.10
2022-08-10T17:42:40.379Z,29.20
2022-08-10T17:46:44.476Z,29.20
2022-08-10T17:50:48.507Z,28.50
2022-08-10T17:55:02.288Z,28.30
2022-08-10T17:59:15.175Z,28.00
2022-08-10T18:03:25.063Z,28.00
2022-08-10T18:07:35.358Z,27.90
2022-08-10T18:11:42.908Z,28.10
2022-08-10T18:15:46.524Z,27.70
2022-08-10T18:19:54.145Z,27.60
2022-08-10T18:24:04.835Z,27.50
2022-08-10T18:28:09.833Z,27.40
2022-08-10T18:32:11.603Z,27.30
2022-08-10T18:36:15.746Z,26.80
2022-08-10T18:40:18.045Z,26.80
2022-08-10T18:44:21.984Z,26.80
2022-08-10T18:48:27.281Z,26.90
2022-08-10T18:52:31.979Z,26.90
2022-08-10T18:56:52.438Z,26.10
2022-08-10T19:01:17.185Z,26.30
2022-08-10T19:05:30.896Z,26.10
2022-08-10T19:09:45.783Z,26.10
2022-08-10T19:14:07.177Z,26.20
2022-08-10T19:18:29.530Z,26.00
2022-08-10T19:23:05.704Z,25.90
2022-08-10T19:27:21.953Z,25.50
2022-08-10T19:31:52.461Z,25.50
2022-08-10T19:36:21.506Z,25.40
2022-08-10T19:40:44.054Z,25.00
2022-08-10T19:45:12.455Z,24.90
2022-08-10T19:49:40.036Z,24.60
2022-08-10T19:54:05.110Z,24.90
2022-08-10T19:58:29.041Z,25.00
2022-08-10T20:02:33.914Z,25.10
2022-08-10T20:06:41.636Z,24.80
2022-08-10T20:10:58.375Z,24.70
2022-08-10T20:15:33.547Z,24.30
2022-08-10T20:19:53.615Z,24.00
2022-08-10T20:24:01.631Z,24.10
2022-08-10T20:28:12.655Z,24.30
2022-08-10T20:32:25.891Z,24.50
2022-08-10T20:36:31.252Z,24.30
2022-08-10T20:40:44.909Z,24.70
2022-08-10T20:44:53.195Z,24.40
2022-08-10T20:49:07.065Z,25.20
2022-08-10T20:53:10.571Z,25.20
2022-08-10T20:57:55.567Z,25.10
2022-08-10T21:02:06.820Z,25.10
2022-08-10T21:06:06.733Z,25.10
2022-08-10T21:10:47.226Z,24.70
2022-08-10T21:15:10.232Z,24.40
2022-08-10T21:19:20.962Z,24.40
2022-08-10T21:23:30.292Z,24.20
2022-08-10T21:28:07.147Z,24.10
2022-08-10T21:32:20.745Z,23.80
2022-08-10T21:36:28.210Z,23.90
2022-08-10T21:41:18.100Z,23.70
2022-08-10T21:45:16.814Z,23.50
2022-08-10T21:49:42.387Z,23.50
2022-08-10T21:54:09.242Z,23.40
2022-08-10T21:58:38.499Z,23.30
2022-08-10T22:02:59.193Z,23.20
2022-08-10T22:07:21.179Z,22.90
2022-08-10T22:11:45.951Z,22.90
2022-08-10T22:16:12.815Z,22.70
2022-08-10T22:20:36.182Z,22.30
2022-08-10T22:25:16.724Z,22.20
2022-08-10T22:29:42.586Z,22.50
2022-08-10T22:34:18.726Z,22.30
2022-08-10T22:38:47.455Z,22.00
2022-08-10T22:43:11.145Z,22.10
2022-08-10T22:47:33.722Z,21.50
2022-08-10T22:51:41.348Z,21.80
2022-08-10T22:56:04.470Z,21.90
2022-08-10T23:00:17.984Z,21.90
2022-08-10T23:04:44.830Z,21.80
2022-08-10T23:08:50.030Z,21.40
2022-08-10T23:12:57.626Z,21.50
2022-08-10T23:17:20.090Z,21.40
2022-08-10T23:21:26.953Z,21.40
2022-08-10T23:25:32.854Z,21.30
2022-08-10T23:29:35.587Z,21.10
2022-08-10T23:33:40.565Z,21.10
2022-08-10T23:37:43.039Z,21.00
2022-08-10T23:41:46.752Z,20.80
2022-08-10T23:45:54.295Z,21.00
2022-08-10T23:49:57.980Z,21.00
2022-08-10T23:54:11.532Z,20.80
2022-08-10T23:58:33.107Z,20.70
